Time;durP1;ratioP1;P1;durP2;ratioP2;P2;SDS_P1;SDS_P2;PMS_P1;PMS_P2;Temp;Humidity;BMP_temperature;BMP_pressure;BME280_temperature;BME280_humidity;BME280_pressure;Samples;Min_cycle;Max_cycle;Signal;HPM_P1;HPM_P2
2021/05/29 00:01:14;;;;;;;7.22;2.58;;;;;;;;;;4879715;29;20021;-65
2021/05/29 00:03:40;;;;;;;5.85;2.72;;;;;;;;;;4879549;29;20061;-64
2021/05/29 00:06:06;;;;;;;7.90;2.53;;;;;;;;;;4879425;29;20127;-65
2021/05/29 00:08:32;;;;;;;6.20;2.55;;;;;;;;;;4879267;29;20033;-64
2021/05/29 00:11:02;;;;;;;4.57;2.05;;;;;;;;;;4879286;29;20022;-67
2021/05/29 00:13:29;;;;;;;5.82;2.58;;;;;;;;;;4879226;29;20492;-67
2021/05/29 00:15:55;;;;;;;8.18;2.85;;;;;;;;;;4878876;29;20033;-66
2021/05/29 00:18:24;;;;;;;6.13;3.25;;;;;;;;;;4878944;29;20063;-69
2021/05/29 00:20:50;;;;;;;4.32;2.53;;;;;;;;;;4879101;29;20025;-64
2021/05/29 00:23:16;;;;;;;7.07;2.88;;;;;;;;;;4878997;29;20435;-64
2021/05/29 00:25:44;;;;;;;6.75;3.22;;;;;;;;;;4878829;29;20553;-64
2021/05/29 00:28:11;;;;;;;5.28;2.35;;;;;;;;;;4878937;29;20125;-64
2021/05/29 00:30:40;;;;;;;9.52;3.05;;;;;;;;;;4878770;29;20648;-66
2021/05/29 00:33:07;;;;;;;9.65;3.03;;;;;;;;;;4878917;29;20482;-64
2021/05/29 00:35:33;;;;;;;11.50;3.22;;;;;;;;;;4878932;29;20486;-65
2021/05/29 00:37:59;;;;;;;7.68;3.20;;;;;;;;;;4861765;29;20054;-63
2021/05/29 00:40:25;;;;;;;8.65;2.80;;;;;;;;;;4878961;29;20057;-63
2021/05/29 00:42:51;;;;;;;6.60;3.05;;;;;;;;;;4878715;29;20037;-63
2021/05/29 00:45:17;;;;;;;4.95;2.90;;;;;;;;;;4878801;29;20429;-64
2021/05/29 00:47:43;;;;;;;7.90;2.72;;;;;;;;;;4878788;29;20032;-63
2021/05/29 00:50:11;;;;;;;10.38;2.58;;;;;;;;;;4878156;29;20033;-64
2021/05/29 00:52:37;;;;;;;6.60;2.60;;;;;;;;;;4878447;29;20500;-64
2021/05/29 00:55:05;;;;;;;4.30;2.47;;;;;;;;;;4878252;29;20515;-67
2021/05/29 00:57:31;;;;;;;6.88;2.70;;;;;;;;;;4878203;29;20462;-64
2021/05/29 00:59:57;;;;;;;4.95;2.95;;;;;;;;;;4876631;29;20033;-65
2021/05/29 01:02:23;;;;;;;5.03;2.38;;;;;;;;;;4877016;29;20064;-64
2021/05/29 01:04:49;;;;;;;5.53;2.60;;;;;;;;;;4878166;29;20092;-64
2021/05/29 01:07:16;;;;;;;7.68;3.00;;;;;;;;;;4878276;29;20033;-64
2021/05/29 01:09:43;;;;;;;5.63;2.63;;;;;;;;;;4878256;29;20032;-64
2021/05/29 01:12:11;;;;;;;5.85;2.75;;;;;;;;;;4878059;29;20035;-64
2021/05/29 01:14:47;;;;;;;5.65;2.88;;;;;;;;;;4877944;29;20040;-64
2021/05/29 01:17:13;;;;;;;4.93;2.78;;;;;;;;;;4878220;29;20025;-64
2021/05/29 01:19:40;;;;;;;4.63;2.53;;;;;;;;;;4878056;29;20040;-64
2021/05/29 01:22:07;;;;;;;6.65;2.78;;;;;;;;;;4878115;29;20029;-65
2021/05/29 01:24:33;;;;;;;6.43;2.55;;;;;;;;;;4877500;29;20049;-67
2021/05/29 01:26:59;;;;;;;6.57;2.40;;;;;;;;;;4877364;29;20052;-64
2021/05/29 01:29:25;;;;;;;5.47;2.70;;;;;;;;;;4877945;29;20464;-66
2021/05/29 01:32:00;;;;;;;5.82;2.15;;;;;;;;;;4878029;29;20495;-68
2021/05/29 01:34:28;;;;;;;4.72;2.30;;;;;;;;;;4877810;29;20096;-64
2021/05/29 01:36:54;;;;;;;5.28;2.33;;;;;;;;;;4877814;29;20871;-64
2021/05/29 01:39:20;;;;;;;10.10;6.85;;;;;;;;;;4877953;29;20039;-64
2021/05/29 01:41:47;;;;;;;6.93;5.57;;;;;;;;;;4877835;29;20044;-64
2021/05/29 01:44:14;;;;;;;9.82;4.18;;;;;;;;;;4877643;29;20029;-64
2021/05/29 01:46:40;;;;;;;7.28;3.72;;;;;;;;;;4878014;29;20036;-63
2021/05/29 01:49:06;;;;;;;5.75;3.17;;;;;;;;;;4877460;29;20108;-64
2021/05/29 01:51:32;;;;;;;7.30;3.15;;;;;;;;;;4877460;29;20060;-64
2021/05/29 01:53:58;;;;;;;4.65;2.80;;;;;;;;;;4877745;29;20097;-64
2021/05/29 01:56:24;;;;;;;5.70;2.85;;;;;;;;;;4877599;29;20037;-64
2021/05/29 01:58:50;;;;;;;6.72;2.85;;;;;;;;;;4877758;29;20028;-64
2021/05/29 02:01:16;;;;;;;4.97;2.60;;;;;;;;;;4877649;29;20080;-64
2021/05/29 02:03:44;;;;;;;6.13;2.63;;;;;;;;;;4877355;29;20024;-65
2021/05/29 02:06:11;;;;;;;5.75;2.78;;;;;;;;;;4877347;29;20021;-65
2021/05/29 02:08:37;;;;;;;6.72;2.67;;;;;;;;;;4877225;29;20112;-65
2021/05/29 02:11:04;;;;;;;5.82;2.88;;;;;;;;;;4877301;29;20065;-64
2021/05/29 02:13:31;;;;;;;5.78;2.85;;;;;;;;;;4877207;29;20069;-65
2021/05/29 02:15:58;;;;;;;6.40;3.10;;;;;;;;;;4877310;29;20025;-64
2021/05/29 02:18:24;;;;;;;5.40;2.83;;;;;;;;;;4877040;29;20032;-64
2021/05/29 02:20:57;;;;;;;5.32;2.78;;;;;;;;;;4877300;29;20025;-65
2021/05/29 02:23:25;;;;;;;7.28;3.13;;;;;;;;;;4876982;29;20466;-65
2021/05/29 02:25:51;;;;;;;5.82;3.03;;;;;;;;;;4877026;29;20053;-66
2021/05/29 02:28:18;;;;;;;12.65;3.60;;;;;;;;;;4877299;29;20375;-64
2021/05/29 02:30:44;;;;;;;8.70;3.45;;;;;;;;;;4877678;29;20386;-65
2021/05/29 02:33:11;;;;;;;7.82;3.20;;;;;;;;;;4877784;29;20504;-65
2021/05/29 02:35:37;;;;;;;6.82;3.22;;;;;;;;;;4861152;29;20033;-65
2021/05/29 02:38:04;;;;;;;5.22;2.95;;;;;;;;;;4879588;29;20039;-65
2021/05/29 02:40:30;;;;;;;7.53;3.25;;;;;;;;;;4876991;29;20109;-65
2021/05/29 02:42:57;;;;;;;7.63;3.30;;;;;;;;;;4878459;29;20029;-65
2021/05/29 02:45:23;;;;;;;5.95;3.42;;;;;;;;;;4877201;29;20393;-65
2021/05/29 02:47:49;;;;;;;6.25;3.33;;;;;;;;;;4877385;29;20107;-65
2021/05/29 02:50:16;;;;;;;8.60;3.53;;;;;;;;;;4879278;29;20025;-65
2021/05/29 02:52:42;;;;;;;6.80;3.50;;;;;;;;;;4881616;29;20474;-64
2021/05/29 02:55:12;;;;;;;10.77;4.10;;;;;;;;;;4881302;29;20043;-66
2021/05/29 02:57:38;;;;;;;7.90;5.70;;;;;;;;;;4881419;29;20029;-65
2021/05/29 03:00:09;;;;;;;8.85;5.10;;;;;;;;;;4881126;29;20036;-65
2021/05/29 03:02:35;;;;;;;8.20;5.20;;;;;;;;;;4881118;29;20033;-64
2021/05/29 03:05:01;;;;;;;7.53;5.03;;;;;;;;;;4880477;29;20029;-64
2021/05/29 03:07:27;;;;;;;5.70;4.25;;;;;;;;;;4880629;29;20036;-64
2021/05/29 03:09:53;;;;;;;7.32;4.20;;;;;;;;;;4880232;29;20029;-65
2021/05/29 03:12:20;;;;;;;9.13;4.50;;;;;;;;;;4880391;29;20133;-65
2021/05/29 03:14:46;;;;;;;8.45;4.45;;;;;;;;;;4880195;29;20079;-65
2021/05/29 03:17:12;;;;;;;6.93;3.90;;;;;;;;;;4880481;29;20021;-66
2021/05/29 03:19:38;;;;;;;6.25;4.20;;;;;;;;;;4880328;29;20406;-65
2021/05/29 03:22:04;;;;;;;7.22;4.25;;;;;;;;;;4880101;29;20033;-66
2021/05/29 03:24:30;;;;;;;5.97;3.95;;;;;;;;;;4879810;29;20116;-65
2021/05/29 03:26:56;;;;;;;8.48;3.67;;;;;;;;;;4880233;29;20037;-66
2021/05/29 03:29:22;;;;;;;8.45;3.78;;;;;;;;;;4879937;29;20029;-66
2021/05/29 03:31:48;;;;;;;6.13;3.65;;;;;;;;;;4880104;29;20045;-70
2021/05/29 03:34:14;;;;;;;6.10;3.33;;;;;;;;;;4880182;29;20385;-66
2021/05/29 03:36:41;;;;;;;5.75;3.47;;;;;;;;;;4880263;29;20048;-66
2021/05/29 03:39:07;;;;;;;7.00;3.60;;;;;;;;;;4879725;29;20029;-70
2021/05/29 03:41:33;;;;;;;5.93;3.00;;;;;;;;;;4880068;29;20062;-65
2021/05/29 03:44:00;;;;;;;9.07;3.17;;;;;;;;;;4879898;29;20430;-66
2021/05/29 03:46:26;;;;;;;6.40;3.20;;;;;;;;;;4879762;29;20029;-66
2021/05/29 03:48:53;;;;;;;4.88;3.28;;;;;;;;;;4879310;29;20037;-66
2021/05/29 03:51:19;;;;;;;6.15;3.00;;;;;;;;;;4879722;29;20047;-65
2021/05/29 03:53:45;;;;;;;6.18;3.15;;;;;;;;;;4879620;29;20394;-65
2021/05/29 03:56:11;;;;;;;6.85;3.20;;;;;;;;;;4879792;29;20034;-64
2021/05/29 03:58:39;;;;;;;6.55;3.17;;;;;;;;;;4879700;29;20036;-66
2021/05/29 04:01:05;;;;;;;5.07;3.08;;;;;;;;;;4879564;29;20104;-66
2021/05/29 04:03:31;;;;;;;5.72;3.45;;;;;;;;;;4879615;29;20044;-66
2021/05/29 04:05:57;;;;;;;5.35;3.30;;;;;;;;;;4862631;29;20036;-66
2021/05/29 04:08:23;;;;;;;5.20;3.20;;;;;;;;;;4879502;29;20029;-66
2021/05/29 04:10:49;;;;;;;5.35;3.08;;;;;;;;;;4879568;29;20121;-67
2021/05/29 04:13:16;;;;;;;5.00;2.67;;;;;;;;;;4879124;29;20085;-66
2021/05/29 04:15:42;;;;;;;4.22;2.70;;;;;;;;;;4862283;29;20028;-66
2021/05/29 04:18:08;;;;;;;3.53;2.78;;;;;;;;;;4879194;29;20032;-66
2021/05/29 04:20:34;;;;;;;5.65;2.70;;;;;;;;;;4879150;29;20029;-67
2021/05/29 04:23:00;;;;;;;6.60;2.90;;;;;;;;;;4878979;29;20033;-66
2021/05/29 04:25:28;;;;;;;6.65;2.47;;;;;;;;;;4879013;29;20068;-66
2021/05/29 04:27:54;;;;;;;4.88;2.53;;;;;;;;;;4879495;29;20036;-68
2021/05/29 04:30:22;;;;;;;5.43;2.30;;;;;;;;;;4878983;29;20105;-66
2021/05/29 04:32:48;;;;;;;4.97;2.22;;;;;;;;;;4878901;29;20052;-65
2021/05/29 04:35:14;;;;;;;4.55;2.05;;;;;;;;;;4879069;29;20033;-65
2021/05/29 04:37:40;;;;;;;3.75;2.30;;;;;;;;;;4861860;29;20541;-67
2021/05/29 04:40:10;;;;;;;4.32;2.20;;;;;;;;;;4878827;29;20070;-65
2021/05/29 04:42:37;;;;;;;5.88;2.58;;;;;;;;;;4879022;29;20478;-65
2021/05/29 04:45:05;;;;;;;6.97;2.30;;;;;;;;;;4878799;29;20048;-65
2021/05/29 04:47:31;;;;;;;4.03;2.65;;;;;;;;;;4878738;29;20109;-66
2021/05/29 04:49:57;;;;;;;6.22;2.17;;;;;;;;;;4879053;29;20498;-65
2021/05/29 04:52:23;;;;;;;5.00;2.83;;;;;;;;;;4878684;29;20033;-65
2021/05/29 04:54:49;;;;;;;3.60;2.10;;;;;;;;;;4878430;29;20044;-65
2021/05/29 04:57:15;;;;;;;4.30;2.28;;;;;;;;;;4879086;29;20512;-66
2021/05/29 04:59:41;;;;;;;3.80;2.30;;;;;;;;;;4861120;29;20462;-65
2021/05/29 05:02:07;;;;;;;5.35;2.60;;;;;;;;;;4877094;29;20029;-66
2021/05/29 05:04:33;;;;;;;6.03;2.50;;;;;;;;;;4878499;29;20561;-65
2021/05/29 05:06:59;;;;;;;4.75;2.35;;;;;;;;;;4878427;29;20056;-65
2021/05/29 05:09:25;;;;;;;5.22;2.50;;;;;;;;;;4878102;29;20485;-64
2021/05/29 05:11:51;;;;;;;3.88;2.30;;;;;;;;;;4878349;29;20029;-65
2021/05/29 05:14:18;;;;;;;2.88;2.10;;;;;;;;;;4877977;29;20447;-64
2021/05/29 05:16:44;;;;;;;3.63;2.28;;;;;;;;;;4877996;29;20459;-66
2021/05/29 05:19:10;;;;;;;5.45;2.30;;;;;;;;;;4877136;29;20025;-68
2021/05/29 05:21:36;;;;;;;6.03;2.60;;;;;;;;;;4877724;29;20029;-65
2021/05/29 05:24:02;;;;;;;4.63;2.22;;;;;;;;;;4877247;29;20029;-64
2021/05/29 05:26:28;;;;;;;5.55;2.50;;;;;;;;;;4877459;29;20041;-66
2021/05/29 05:28:54;;;;;;;3.55;2.40;;;;;;;;;;4875075;29;20025;-67
2021/05/29 05:31:20;;;;;;;6.18;2.58;;;;;;;;;;4876810;29;20159;-64
2021/05/29 05:33:48;;;;;;;6.57;3.22;;;;;;;;;;4874394;29;20485;-63
2021/05/29 05:36:14;;;;;;;5.78;2.80;;;;;;;;;;4876590;29;20013;-63
2021/05/29 05:38:41;;;;;;;5.20;2.70;;;;;;;;;;4876698;29;20108;-64
2021/05/29 05:41:08;;;;;;;6.80;4.20;;;;;;;;;;4874471;29;20052;-64
2021/05/29 05:43:35;;;;;;;4.15;2.60;;;;;;;;;;4876337;29;20033;-65
2021/05/29 05:46:02;;;;;;;4.47;2.35;;;;;;;;;;4876505;29;20033;-65
2021/05/29 05:48:28;;;;;;;5.22;2.45;;;;;;;;;;4876735;29;20116;-66
2021/05/29 05:50:56;;;;;;;5.85;2.53;;;;;;;;;;4876334;29;20150;-65
2021/05/29 05:53:23;;;;;;;6.10;3.42;;;;;;;;;;4876288;29;20037;-65
2021/05/29 05:56:03;;;;;;;7.35;3.28;;;;;;;;;;4876166;29;20045;-65
2021/05/29 05:58:31;;;;;;;5.43;3.45;;;;;;;;;;4874110;29;20033;-64
2021/05/29 06:00:57;;;;;;;4.82;2.78;;;;;;;;;;4876257;29;20066;-65
2021/05/29 06:03:24;;;;;;;6.15;2.92;;;;;;;;;;4876183;29;20048;-68
2021/05/29 06:05:50;;;;;;;4.90;2.47;;;;;;;;;;4875973;29;20100;-69
2021/05/29 06:08:16;;;;;;;4.05;2.33;;;;;;;;;;4876827;29;20029;-67
2021/05/29 06:10:43;;;;;;;4.68;2.10;;;;;;;;;;4877031;29;20032;-66
2021/05/29 06:13:15;;;;;;;5.13;2.22;;;;;;;;;;4875564;29;20039;-65
2021/05/29 06:20:54;;;;;;;4.78;3.00;;;;;;;;;;4875819;29;20402;-65
2021/05/29 06:23:20;;;;;;;4.63;2.25;;;;;;;;;;4875635;29;20112;-64
2021/05/29 06:25:46;;;;;;;5.05;2.17;;;;;;;;;;4875591;29;20056;-66
2021/05/29 06:28:12;;;;;;;5.18;2.40;;;;;;;;;;4875709;29;20025;-63
2021/05/29 06:30:39;;;;;;;3.28;2.40;;;;;;;;;;4875714;29;20048;-63
2021/05/29 06:33:06;;;;;;;3.20;2.30;;;;;;;;;;4876179;29;20036;-67
2021/05/29 06:35:32;;;;;;;3.63;2.35;;;;;;;;;;4875180;29;20040;-64
2021/05/29 06:37:59;;;;;;;2.70;1.92;;;;;;;;;;4876578;29;20032;-64
2021/05/29 06:40:26;;;;;;;3.42;1.98;;;;;;;;;;4876586;29;20040;-64
2021/05/29 06:42:52;;;;;;;8.43;2.15;;;;;;;;;;4876999;29;20375;-67
2021/05/29 06:45:18;;;;;;;6.22;2.05;;;;;;;;;;4875432;29;20112;-66
2021/05/29 06:47:44;;;;;;;4.15;2.17;;;;;;;;;;4875510;29;20025;-64
2021/05/29 06:50:10;;;;;;;4.70;2.70;;;;;;;;;;4875608;29;20033;-65
2021/05/29 06:52:39;;;;;;;5.45;2.67;;;;;;;;;;4875424;29;20033;-63
2021/05/29 07:00:35;;;;;;;6.80;3.42;;;;;;;;;;4876611;29;20144;-63
2021/05/29 07:03:01;;;;;;;4.47;2.47;;;;;;;;;;4876367;29;20097;-64
2021/05/29 07:05:28;;;;;;;5.03;2.20;;;;;;;;;;4876317;29;20033;-63
2021/05/29 07:07:54;;;;;;;2.10;1.75;;;;;;;;;;4876427;29;20029;-65
2021/05/29 07:10:20;;;;;;;4.88;2.10;;;;;;;;;;4876229;29;20056;-65
2021/05/29 07:12:46;;;;;;;5.60;2.40;;;;;;;;;;4876676;29;20048;-66
2021/05/29 07:15:12;;;;;;;2.85;1.83;;;;;;;;;;4876189;29;20111;-67
2021/05/29 07:17:41;;;;;;;4.35;1.90;;;;;;;;;;4859525;29;20029;-65
2021/05/29 07:20:08;;;;;;;3.92;2.13;;;;;;;;;;4874816;29;20025;-65
2021/05/29 07:22:35;;;;;;;6.55;3.20;;;;;;;;;;4870587;29;20505;-66
2021/05/29 07:25:01;;;;;;;4.10;2.35;;;;;;;;;;4875078;29;20075;-68
2021/05/29 07:27:27;;;;;;;4.82;2.42;;;;;;;;;;4879681;29;20041;-66
2021/05/29 07:29:53;;;;;;;5.82;2.38;;;;;;;;;;4879164;29;20469;-65
2021/05/29 07:32:20;;;;;;;4.45;2.80;;;;;;;;;;4880035;29;20394;-66
2021/05/29 07:34:46;;;;;;;2.58;2.03;;;;;;;;;;4879609;29;20033;-65
2021/05/29 07:37:12;;;;;;;4.55;2.50;;;;;;;;;;4878824;29;20026;-65
2021/05/29 07:39:38;;;;;;;5.05;2.50;;;;;;;;;;4879960;29;20025;-68
2021/05/29 07:42:04;;;;;;;6.53;2.40;;;;;;;;;;4880189;29;20025;-65
2021/05/29 07:44:30;;;;;;;4.38;2.15;;;;;;;;;;4879777;29;20029;-65
2021/05/29 07:46:56;;;;;;;3.83;2.13;;;;;;;;;;4879964;29;20033;-65
2021/05/29 07:49:22;;;;;;;10.35;5.50;;;;;;;;;;4879319;29;20031;-66
2021/05/29 07:51:48;;;;;;;8.23;4.50;;;;;;;;;;4879614;29;20021;-66
2021/05/29 07:54:14;;;;;;;6.70;3.22;;;;;;;;;;4879480;29;20037;-66
2021/05/29 07:56:41;;;;;;;4.53;3.13;;;;;;;;;;4880012;29;20025;-67
2021/05/29 07:59:10;;;;;;;3.72;1.98;;;;;;;;;;4879919;29;20025;-67
2021/05/29 08:01:37;;;;;;;5.60;2.40;;;;;;;;;;4879407;29;20521;-67
2021/05/29 08:04:03;;;;;;;4.65;1.90;;;;;;;;;;4879194;29;20105;-66
2021/05/29 08:06:30;;;;;;;5.32;1.90;;;;;;;;;;4879468;29;20035;-67
2021/05/29 08:08:56;;;;;;;5.35;2.33;;;;;;;;;;4879050;29;20037;-67
2021/05/29 08:11:23;;;;;;;4.57;2.20;;;;;;;;;;4878786;29;20127;-67
2021/05/29 08:13:50;;;;;;;4.55;1.65;;;;;;;;;;4878644;29;20033;-66
2021/05/29 08:16:17;;;;;;;3.97;2.03;;;;;;;;;;4879142;29;20025;-66
2021/05/29 08:18:43;;;;;;;4.18;2.08;;;;;;;;;;4878888;29;20481;-67
2021/05/29 08:21:09;;;;;;;4.00;1.77;;;;;;;;;;4878655;29;20032;-67
2021/05/29 08:23:36;;;;;;;3.55;1.90;;;;;;;;;;4878365;29;20033;-68
2021/05/29 08:26:02;;;;;;;3.13;1.70;;;;;;;;;;4878388;29;20128;-68
2021/05/29 08:28:28;;;;;;;3.88;1.98;;;;;;;;;;4877216;29;20485;-66
2021/05/29 08:30:54;;;;;;;3.67;2.38;;;;;;;;;;4865943;29;20037;-63
2021/05/29 08:33:20;;;;;;;3.25;1.60;;;;;;;;;;4875887;29;20069;-64
2021/05/29 08:35:46;;;;;;;3.85;2.30;;;;;;;;;;4867405;29;20033;-63
2021/05/29 08:38:12;;;;;;;5.20;1.70;;;;;;;;;;4868256;29;20033;-64
2021/05/29 08:40:38;;;;;;;2.30;1.70;;;;;;;;;;4868683;29;20077;-64
2021/05/29 08:43:04;;;;;;;3.03;1.75;;;;;;;;;;4867825;29;20122;-64
2021/05/29 08:45:31;;;;;;;6.13;1.75;;;;;;;;;;4869654;29;20021;-64
2021/05/29 08:47:58;;;;;;;4.38;1.85;;;;;;;;;;4868506;29;20033;-64
2021/05/29 08:50:25;;;;;;;4.22;1.73;;;;;;;;;;4868101;29;20021;-64
2021/05/29 08:52:51;;;;;;;4.03;1.75;;;;;;;;;;4852522;29;20482;-63
2021/05/29 08:55:17;;;;;;;3.83;1.80;;;;;;;;;;4869053;29;20054;-64
2021/05/29 08:57:44;;;;;;;7.80;2.17;;;;;;;;;;4850963;29;20963;-66
2021/05/29 09:00:15;;;;;;;4.55;1.75;;;;;;;;;;4868911;29;20044;-64
2021/05/29 09:03:02;;;;;;;6.38;2.03;;;;;;;;;;4869456;29;20021;-66
2021/05/29 09:05:34;;;;;;;5.13;2.05;;;;;;;;;;4869270;29;20055;-63
2021/05/29 09:08:00;;;;;;;;;;;;;;;;;;4867203;29;20029;-64
2021/05/29 09:10:26;;;;;;;5.50;2.30;;;;;;;;;;4859542;29;19912;-64
2021/05/29 09:13:02;;;;;;;5.25;2.08;;;;;;;;;;4859433;29;20060;-63
2021/05/29 09:15:51;;;;;;;5.20;2.35;;;;;;;;;;4863640;29;20188;-63
2021/05/29 09:18:26;;;;;;;5.22;2.28;;;;;;;;;;4874142;29;20053;-63
2021/05/29 09:20:52;;;;;;;6.00;2.20;;;;;;;;;;4872345;29;20044;-63
2021/05/29 09:23:18;;;;;;;4.85;2.00;;;;;;;;;;4866378;29;20042;-63
2021/05/29 09:25:53;;;;;;;3.58;1.70;;;;;;;;;;4887406;29;20131;-63
2021/05/29 09:28:25;;;;;;;3.65;1.58;;;;;;;;;;4895197;29;20037;-62
2021/05/29 09:30:52;;;;;;;3.28;1.90;;;;;;;;;;4895452;29;20028;-62
2021/05/29 09:33:21;;;;;;;3.22;1.70;;;;;;;;;;4895753;29;20053;-61
2021/05/29 09:35:59;;;;;;;3.15;1.85;;;;;;;;;;4891174;29;20039;-62
2021/05/29 09:38:25;;;;;;;6.13;1.80;;;;;;;;;;4885240;29;20029;-61
2021/05/29 09:40:55;;;;;;;3.75;1.88;;;;;;;;;;4885461;29;20032;-63
2021/05/29 09:43:22;;;;;;;4.22;1.70;;;;;;;;;;4884843;29;20112;-63
2021/05/29 09:46:04;;;;;;;3.08;1.67;;;;;;;;;;4889653;29;20506;-65
2021/05/29 09:48:31;;;;;;;3.58;1.73;;;;;;;;;;4876365;29;20429;-63
2021/05/29 09:51:00;;;;;;;4.18;1.70;;;;;;;;;;4877331;29;20426;-63
2021/05/29 09:53:27;;;;;;;3.13;2.00;;;;;;;;;;4877134;29;20088;-64
2021/05/29 09:55:53;;;;;;;4.22;1.50;;;;;;;;;;4877038;29;20450;-64
2021/05/29 09:58:19;;;;;;;2.40;1.30;;;;;;;;;;4876701;29;20068;-62
2021/05/29 10:00:46;;;;;;;2.55;1.45;;;;;;;;;;4877121;29;20025;-64
2021/05/29 10:03:13;;;;;;;2.55;1.40;;;;;;;;;;4876621;29;20100;-62
2021/05/29 10:05:48;;;;;;;3.95;1.55;;;;;;;;;;4875664;29;20442;-62
2021/05/29 10:08:15;;;;;;;3.53;1.73;;;;;;;;;;4877056;29;20032;-65
2021/05/29 10:10:44;;;;;;;2.75;1.70;;;;;;;;;;4876614;29;20448;-63
2021/05/29 10:13:10;;;;;;;3.67;1.35;;;;;;;;;;4876642;29;20083;-64
2021/05/29 10:18:22;;;;;;;3.63;1.33;;;;;;;;;;4876574;29;20112;-64
2021/05/29 10:20:51;;;;;;;7.50;1.70;;;;;;;;;;4876618;29;20033;-67
2021/05/29 10:23:20;;;;;;;5.30;1.90;;;;;;;;;;4876662;29;20017;-65
2021/05/29 10:25:46;;;;;;;3.75;1.60;;;;;;;;;;4862777;29;20085;-65
2021/05/29 10:28:13;;;;;;;2.65;1.80;;;;;;;;;;4858023;29;20037;-64
2021/05/29 10:30:39;;;;;;;7.60;1.95;;;;;;;;;;4855327;29;20098;-65
2021/05/29 10:33:12;;;;;;;2.78;1.52;;;;;;;;;;4858017;29;20508;-63
2021/05/29 10:35:39;;;;;;;3.28;1.52;;;;;;;;;;4859006;29;20484;-65
2021/05/29 10:38:07;;;;;;;6.75;1.90;;;;;;;;;;4857774;29;20044;-64
2021/05/29 10:40:35;;;;;;;2.90;1.38;;;;;;;;;;4858005;29;20018;-63
2021/05/29 10:43:08;;;;;;;2.88;1.33;;;;;;;;;;4858858;29;20028;-62
2021/05/29 10:45:55;;;;;;;3.67;1.48;;;;;;;;;;4858004;29;20582;-62
2021/05/29 10:48:24;;;;;;;3.40;1.50;;;;;;;;;;4783447;30;20519;-66
2021/05/29 10:50:57;;;;;;;4.78;1.50;;;;;;;;;;4780965;30;20066;-65
2021/05/29 10:53:39;;;;;;;3.58;1.45;;;;;;;;;;4797006;29;20051;-62
2021/05/29 10:56:17;;;;;;;3.95;1.55;;;;;;;;;;4800896;29;20039;-63
2021/05/29 10:58:55;;;;;;;3.53;1.70;;;;;;;;;;4801010;29;20171;-64
2021/05/29 11:01:21;;;;;;;3.05;1.50;;;;;;;;;;4805025;29;20035;-65
2021/05/29 11:03:48;;;;;;;5.50;2.22;;;;;;;;;;4804496;29;20140;-64
2021/05/29 11:06:30;;;;;;;3.47;1.73;;;;;;;;;;4789291;29;20035;-62
2021/05/29 11:09:00;;;;;;;;;;;;;;;;;;4804680;29;20039;-62
2021/05/29 11:14:05;;;;;;;2.15;1.30;;;;;;;;;;4804380;29;20447;-63
2021/05/29 11:16:49;;;;;;;3.13;1.50;;;;;;;;;;4804404;29;20035;-63
2021/05/29 11:19:18;;;;;;;3.60;1.25;;;;;;;;;;4803790;29;20100;-63
2021/05/29 11:22:04;;;;;;;5.47;1.30;;;;;;;;;;4804322;29;20031;-65
2021/05/29 11:24:31;;;;;;;9.15;4.93;;;;;;;;;;4811414;29;20096;-63
2021/05/29 11:26:57;;;;;;;3.33;1.73;;;;;;;;;;4880358;29;20052;-64
2021/05/29 11:29:23;;;;;;;6.47;1.98;;;;;;;;;;4880535;29;20108;-64
2021/05/29 11:31:50;;;;;;;5.20;2.90;;;;;;;;;;4880357;29;20033;-64
2021/05/29 11:34:17;;;;;;;3.53;1.42;;;;;;;;;;4880042;29;20478;-64
2021/05/29 11:36:44;;;;;;;3.63;1.30;;;;;;;;;;4880311;29;20079;-63
2021/05/29 11:39:11;;;;;;;2.80;1.38;;;;;;;;;;4880357;29;20049;-63
2021/05/29 11:41:37;;;;;;;3.63;1.58;;;;;;;;;;4880031;29;20045;-63
2021/05/29 11:44:05;;;;;;;4.97;1.42;;;;;;;;;;4863943;29;20041;-65
2021/05/29 11:46:32;;;;;;;3.80;1.35;;;;;;;;;;4880437;29;20056;-66
2021/05/29 11:49:01;;;;;;;5.20;1.52;;;;;;;;;;4880436;29;20033;-63
2021/05/29 11:51:29;;;;;;;3.00;1.50;;;;;;;;;;4880650;29;20018;-63
2021/05/29 11:54:05;;;;;;;3.85;1.83;;;;;;;;;;4879669;29;20068;-63
2021/05/29 11:56:36;;;;;;;3.20;1.40;;;;;;;;;;4880188;29;20116;-62
2021/05/29 11:59:04;;;;;;;4.93;1.70;;;;;;;;;;4880023;29;20029;-64
2021/05/29 12:01:38;;;;;;;3.58;1.45;;;;;;;;;;4879692;29;20064;-62
2021/05/29 12:04:09;;;;;;;3.40;1.63;;;;;;;;;;4862886;29;20037;-63
2021/05/29 12:06:38;;;;;;;2.10;1.38;;;;;;;;;;4879777;29;20029;-64
2021/05/29 12:09:05;;;;;;;2.95;0.98;;;;;;;;;;4878978;29;20088;-64
2021/05/29 12:11:33;;;;;;;3.92;1.40;;;;;;;;;;4878827;29;20029;-65
2021/05/29 12:14:01;;;;;;;4.28;1.58;;;;;;;;;;4879418;29;20041;-65
2021/05/29 12:16:31;;;;;;;2.45;1.38;;;;;;;;;;4879308;29;20029;-63
2021/05/29 12:18:58;;;;;;;5.25;1.25;;;;;;;;;;4879189;29;20466;-64
2021/05/29 12:21:25;;;;;;;2.33;1.00;;;;;;;;;;4879197;29;20061;-64
2021/05/29 12:23:51;;;;;;;2.53;1.40;;;;;;;;;;4878736;29;20039;-63
2021/05/29 12:26:17;;;;;;;4.57;1.45;;;;;;;;;;4878999;29;20061;-62
2021/05/29 12:28:43;;;;;;;2.63;1.10;;;;;;;;;;4878959;29;20051;-66
2021/05/29 12:31:09;;;;;;;3.65;1.30;;;;;;;;;;4878873;29;20496;-63
2021/05/29 12:33:36;;;;;;;5.22;1.20;;;;;;;;;;4879308;29;20037;-64
2021/05/29 12:36:05;;;;;;;6.10;1.17;;;;;;;;;;4879047;29;20537;-64
2021/05/29 12:38:32;;;;;;;3.42;1.42;;;;;;;;;;4878636;29;20371;-64
2021/05/29 12:40:59;;;;;;;3.85;1.20;;;;;;;;;;4879191;29;20025;-64
2021/05/29 12:43:26;;;;;;;3.35;1.50;;;;;;;;;;4878443;29;20053;-64
2021/05/29 12:45:53;;;;;;;5.22;1.42;;;;;;;;;;4878805;29;20024;-64
2021/05/29 12:48:19;;;;;;;2.08;1.23;;;;;;;;;;4878969;29;20541;-63
2021/05/29 12:53:33;;;;;;;8.70;1.48;;;;;;;;;;4878673;29;20076;-64
2021/05/29 12:56:13;;;;;;;5.57;3.05;;;;;;;;;;4878849;29;20036;-64
2021/05/29 12:58:39;;;;;;;3.63;1.27;;;;;;;;;;4878915;29;20033;-66
2021/05/29 13:12:08;;;;;;;2.38;1.25;;;;;;;;;;4801881;29;20400;-65
2021/05/29 13:14:34;;;;;;;4.30;1.40;;;;;;;;;;4802578;29;20047;-65
2021/05/29 13:17:03;;;;;;;3.42;1.10;;;;;;;;;;4801574;29;20022;-64
2021/05/29 13:19:30;;;;;;;2.63;1.33;;;;;;;;;;4802129;29;20443;-66
2021/05/29 13:22:03;;;;;;;4.80;1.40;;;;;;;;;;4801432;29;20085;-65
2021/05/29 13:24:49;;;;;;;3.90;1.35;;;;;;;;;;4801357;29;20504;-64
2021/05/29 13:27:18;;;;;;;1.85;1.02;;;;;;;;;;4802163;29;20188;-66
2021/05/29 13:29:45;;;;;;;2.20;1.23;;;;;;;;;;4802461;29;20035;-66
2021/05/29 13:32:11;;;;;;;2.75;1.20;;;;;;;;;;4802163;29;20466;-66
2021/05/29 13:34:37;;;;;;;5.50;1.88;;;;;;;;;;4801998;29;20134;-65
2021/05/29 13:37:04;;;;;;;3.30;1.50;;;;;;;;;;4802611;29;20041;-66
2021/05/29 13:39:30;;;;;;;3.08;1.60;;;;;;;;;;4804519;29;20054;-64
2021/05/29 13:41:56;;;;;;;3.15;1.30;;;;;;;;;;4878202;29;20393;-65
2021/05/29 13:44:22;;;;;;;3.90;1.77;;;;;;;;;;4878237;29;20033;-65
2021/05/29 13:46:48;;;;;;;7.00;1.40;;;;;;;;;;4877889;29;20116;-65
2021/05/29 13:49:14;;;;;;;4.22;1.80;;;;;;;;;;4878148;29;20029;-65
2021/05/29 13:51:40;;;;;;;3.47;1.40;;;;;;;;;;4877573;29;20069;-64
2021/05/29 13:54:07;;;;;;;5.78;1.60;;;;;;;;;;4876944;29;20049;-65
2021/05/29 13:56:35;;;;;;;3.75;1.40;;;;;;;;;;4878060;29;20036;-65
2021/05/29 13:59:02;;;;;;;3.97;1.20;;;;;;;;;;4878078;29;20040;-65
2021/05/29 14:01:29;;;;;;;4.95;1.38;;;;;;;;;;4877946;29;20406;-64
2021/05/29 14:03:55;;;;;;;2.22;1.30;;;;;;;;;;4860298;29;20499;-65
2021/05/29 14:06:21;;;;;;;2.63;1.35;;;;;;;;;;4877594;29;20040;-64
2021/05/29 14:08:47;;;;;;;5.03;1.50;;;;;;;;;;4877170;29;20024;-64
2021/05/29 14:11:27;;;;;;;2.25;1.25;;;;;;;;;;4877529;29;20116;-64
2021/05/29 14:13:54;;;;;;;3.58;1.50;;;;;;;;;;4877376;29;20052;-65
2021/05/29 14:16:20;;;;;;;2.35;1.05;;;;;;;;;;4877402;29;20104;-66
2021/05/29 14:18:47;;;;;;;4.20;1.23;;;;;;;;;;4876808;29;20049;-65
2021/05/29 14:21:14;;;;;;;1.85;1.13;;;;;;;;;;4877300;29;20431;-65
2021/05/29 14:23:40;;;;;;;4.18;1.50;;;;;;;;;;4877075;29;20029;-64
2021/05/29 14:26:06;;;;;;;4.60;1.20;;;;;;;;;;4876706;29;20064;-64
2021/05/29 14:28:33;;;;;;;4.45;1.50;;;;;;;;;;4877428;29;20029;-65
2021/05/29 14:31:00;;;;;;;3.45;1.40;;;;;;;;;;4877430;29;20033;-66
2021/05/29 14:33:26;;;;;;;1.33;0.85;;;;;;;;;;4876977;29;20040;-66
2021/05/29 14:35:52;;;;;;;4.50;1.30;;;;;;;;;;4877197;29;20398;-66
2021/05/29 14:38:18;;;;;;;5.53;1.50;;;;;;;;;;4877132;29;20029;-66
2021/05/29 14:40:45;;;;;;;4.43;1.30;;;;;;;;;;4877251;29;20029;-64
2021/05/29 14:43:11;;;;;;;4.18;1.42;;;;;;;;;;4877278;29;20037;-64
2021/05/29 14:45:37;;;;;;;3.17;1.10;;;;;;;;;;4877325;29;20036;-66
2021/05/29 14:48:03;;;;;;;2.00;1.05;;;;;;;;;;4876953;29;20040;-63
2021/05/29 14:50:29;;;;;;;2.38;1.40;;;;;;;;;;4877337;29;20482;-64
2021/05/29 14:52:57;;;;;;;5.03;1.35;;;;;;;;;;4876863;29;20442;-64
2021/05/29 14:55:23;;;;;;;2.33;1.30;;;;;;;;;;4876946;29;20088;-66
2021/05/29 14:57:49;;;;;;;3.35;1.30;;;;;;;;;;4876523;29;20505;-64
2021/05/29 15:00:17;;;;;;;2.92;1.42;;;;;;;;;;4876885;29;20029;-66
2021/05/29 15:02:47;;;;;;;2.13;1.10;;;;;;;;;;4877029;29;20029;-64
2021/05/29 15:05:13;;;;;;;5.35;1.90;;;;;;;;;;4877068;29;20021;-64
2021/05/29 15:07:39;;;;;;;3.58;2.03;;;;;;;;;;4876912;29;20029;-66
2021/05/29 15:10:05;;;;;;;5.85;1.33;;;;;;;;;;4876559;29;20032;-65
2021/05/29 15:12:31;;;;;;;4.72;1.52;;;;;;;;;;4877009;29;20029;-64
2021/05/29 15:14:57;;;;;;;3.03;1.58;;;;;;;;;;4876933;29;20041;-65